sensor_id;sensor_type;location;lat;lon;timestamp;P1;durP1;ratioP1;P2;durP2;ratioP2
45812;SDS011;31519;45.408;10.962;2022-12-29T00:00:08;24.38;;;11.15;;
45812;SDS011;31519;45.408;10.962;2022-12-29T00:03:02;20.95;;;10.70;;
45812;SDS011;31519;45.408;10.962;2022-12-29T00:05:30;22.58;;;11.93;;
45812;SDS011;31519;45.408;10.962;2022-12-29T00:07:58;23.25;;;11.98;;
45812;SDS011;31519;45.408;10.962;2022-12-29T00:10:26;29.33;;;11.10;;
45812;SDS011;31519;45.408;10.962;2022-12-29T00:12:54;25.10;;;10.38;;
45812;SDS011;31519;45.408;10.962;2022-12-29T00:15:41;23.73;;;11.70;;
45812;SDS011;31519;45.408;10.962;2022-12-29T00:18:09;21.67;;;11.30;;
45812;SDS011;31519;45.408;10.962;2022-12-29T00:20:37;34.05;;;11.07;;
45812;SDS011;31519;45.408;10.962;2022-12-29T00:23:24;29.60;;;11.57;;
45812;SDS011;31519;45.408;10.962;2022-12-29T00:26:12;28.95;;;13.38;;
45812;SDS011;31519;45.408;10.962;2022-12-29T00:29:01;19.55;;;10.15;;
45812;SDS011;31519;45.408;10.962;2022-12-29T00:31:48;23.88;;;11.70;;
45812;SDS011;31519;45.408;10.962;2022-12-29T00:34:36;25.48;;;12.27;;
45812;SDS011;31519;45.408;10.962;2022-12-29T00:37:22;23.48;;;10.77;;
45812;SDS011;31519;45.408;10.962;2022-12-29T00:40:35;25.40;;;11.50;;
45812;SDS011;31519;45.408;10.962;2022-12-29T00:43:21;23.70;;;11.45;;
45812;SDS011;31519;45.408;10.962;2022-12-29T00:46:10;25.75;;;11.88;;
45812;SDS011;31519;45.408;10.962;2022-12-29T00:48:46;18.70;;;10.88;;
45812;SDS011;31519;45.408;10.962;2022-12-29T00:51:33;20.35;;;10.70;;
45812;SDS011;31519;45.408;10.962;2022-12-29T00:54:01;22.40;;;10.38;;
45812;SDS011;31519;45.408;10.962;2022-12-29T00:56:29;22.35;;;11.18;;
45812;SDS011;31519;45.408;10.962;2022-12-29T00:59:01;27.77;;;10.73;;
45812;SDS011;31519;45.408;10.962;2022-12-29T01:01:33;24.27;;;12.27;;
45812;SDS011;31519;45.408;10.962;2022-12-29T01:04:03;26.90;;;11.68;;
45812;SDS011;31519;45.408;10.962;2022-12-29T01:06:32;21.20;;;10.80;;
45812;SDS011;31519;45.408;10.962;2022-12-29T01:09:01;23.10;;;10.65;;
45812;SDS011;31519;45.408;10.962;2022-12-29T01:11:50;21.48;;;10.63;;
45812;SDS011;31519;45.408;10.962;2022-12-29T01:14:18;26.23;;;12.00;;
45812;SDS011;31519;45.408;10.962;2022-12-29T01:16:47;65.32;;;23.65;;
45812;SDS011;31519;45.408;10.962;2022-12-29T01:19:17;52.35;;;17.20;;
45812;SDS011;31519;45.408;10.962;2022-12-29T01:21:46;24.55;;;11.73;;
45812;SDS011;31519;45.408;10.962;2022-12-29T01:24:15;195.23;;;61.60;;
45812;SDS011;31519;45.408;10.962;2022-12-29T01:26:46;25.40;;;13.13;;
45812;SDS011;31519;45.408;10.962;2022-12-29T01:29:16;88.22;;;30.15;;
45812;SDS011;31519;45.408;10.962;2022-12-29T01:31:45;65.70;;;23.38;;
45812;SDS011;31519;45.408;10.962;2022-12-29T01:34:14;30.05;;;12.50;;
45812;SDS011;31519;45.408;10.962;2022-12-29T01:36:42;25.10;;;11.10;;
45812;SDS011;31519;45.408;10.962;2022-12-29T01:39:11;24.63;;;11.98;;
45812;SDS011;31519;45.408;10.962;2022-12-29T01:41:41;24.15;;;10.63;;
45812;SDS011;31519;45.408;10.962;2022-12-29T01:47:15;18.75;;;10.15;;
45812;SDS011;31519;45.408;10.962;2022-12-29T01:49:51;17.27;;;9.68;;
45812;SDS011;31519;45.408;10.962;2022-12-29T01:52:22;16.52;;;9.48;;
45812;SDS011;31519;45.408;10.962;2022-12-29T01:54:52;18.10;;;8.40;;
45812;SDS011;31519;45.408;10.962;2022-12-29T01:57:34;16.33;;;8.68;;
45812;SDS011;31519;45.408;10.962;2022-12-29T02:00:07;19.02;;;8.75;;
45812;SDS011;31519;45.408;10.962;2022-12-29T02:02:42;24.50;;;9.00;;
45812;SDS011;31519;45.408;10.962;2022-12-29T02:05:36;23.38;;;9.57;;
45812;SDS011;31519;45.408;10.962;2022-12-29T02:08:23;16.75;;;8.27;;
45812;SDS011;31519;45.408;10.962;2022-12-29T02:10:55;20.77;;;10.52;;
45812;SDS011;31519;45.408;10.962;2022-12-29T02:13:27;37.35;;;16.63;;
45812;SDS011;31519;45.408;10.962;2022-12-29T02:30:05;28.58;;;9.77;;
45812;SDS011;31519;45.408;10.962;2022-12-29T02:40:51;34.33;;;15.70;;
45812;SDS011;31519;45.408;10.962;2022-12-29T02:49:06;22.98;;;11.18;;
45812;SDS011;31519;45.408;10.962;2022-12-29T02:51:57;18.65;;;10.73;;
45812;SDS011;31519;45.408;10.962;2022-12-29T02:54:28;19.88;;;11.60;;
45812;SDS011;31519;45.408;10.962;2022-12-29T02:57:31;23.20;;;11.82;;
45812;SDS011;31519;45.408;10.962;2022-12-29T03:02:59;24.50;;;11.07;;
45812;SDS011;31519;45.408;10.962;2022-12-29T03:08:23;27.67;;;12.05;;
45812;SDS011;31519;45.408;10.962;2022-12-29T03:13:54;29.27;;;14.15;;
45812;SDS011;31519;45.408;10.962;2022-12-29T03:16:46;30.05;;;13.20;;
45812;SDS011;31519;45.408;10.962;2022-12-29T03:19:21;24.30;;;13.18;;
45812;SDS011;31519;45.408;10.962;2022-12-29T03:22:12;20.75;;;11.73;;
45812;SDS011;31519;45.408;10.962;2022-12-29T03:25:10;20.98;;;11.20;;
45812;SDS011;31519;45.408;10.962;2022-12-29T03:27:58;25.95;;;11.30;;
45812;SDS011;31519;45.408;10.962;2022-12-29T03:30:35;20.42;;;11.38;;
45812;SDS011;31519;45.408;10.962;2022-12-29T03:33:07;26.83;;;12.73;;
45812;SDS011;31519;45.408;10.962;2022-12-29T03:35:40;23.85;;;12.80;;
45812;SDS011;31519;45.408;10.962;2022-12-29T03:38:17;25.13;;;12.13;;
45812;SDS011;31519;45.408;10.962;2022-12-29T03:40:49;21.80;;;11.35;;
45812;SDS011;31519;45.408;10.962;2022-12-29T03:43:30;26.35;;;12.45;;
45812;SDS011;31519;45.408;10.962;2022-12-29T03:45:59;24.80;;;12.82;;
45812;SDS011;31519;45.408;10.962;2022-12-29T03:48:27;31.58;;;11.88;;
45812;SDS011;31519;45.408;10.962;2022-12-29T03:50:57;25.60;;;12.68;;
45812;SDS011;31519;45.408;10.962;2022-12-29T03:53:27;21.95;;;11.43;;
45812;SDS011;31519;45.408;10.962;2022-12-29T03:55:55;23.75;;;12.05;;
45812;SDS011;31519;45.408;10.962;2022-12-29T03:58:23;31.83;;;13.32;;
45812;SDS011;31519;45.408;10.962;2022-12-29T04:01:01;16.02;;;10.18;;
45812;SDS011;31519;45.408;10.962;2022-12-29T04:03:32;21.92;;;9.57;;
45812;SDS011;31519;45.408;10.962;2022-12-29T04:06:01;21.77;;;11.00;;
45812;SDS011;31519;45.408;10.962;2022-12-29T04:08:36;25.98;;;12.63;;
45812;SDS011;31519;45.408;10.962;2022-12-29T04:11:05;19.80;;;11.25;;
45812;SDS011;31519;45.408;10.962;2022-12-29T04:13:35;24.17;;;10.45;;
45812;SDS011;31519;45.408;10.962;2022-12-29T04:16:03;24.17;;;12.25;;
45812;SDS011;31519;45.408;10.962;2022-12-29T04:18:32;21.55;;;11.02;;
45812;SDS011;31519;45.408;10.962;2022-12-29T04:21:01;18.85;;;9.70;;
45812;SDS011;31519;45.408;10.962;2022-12-29T04:23:33;26.00;;;10.85;;
45812;SDS011;31519;45.408;10.962;2022-12-29T04:26:08;24.90;;;10.02;;
45812;SDS011;31519;45.408;10.962;2022-12-29T04:28:57;17.92;;;9.10;;
45812;SDS011;31519;45.408;10.962;2022-12-29T04:31:34;18.88;;;10.50;;
45812;SDS011;31519;45.408;10.962;2022-12-29T04:34:02;22.25;;;9.38;;
45812;SDS011;31519;45.408;10.962;2022-12-29T04:36:32;22.90;;;10.27;;
45812;SDS011;31519;45.408;10.962;2022-12-29T04:39:01;19.10;;;10.07;;
45812;SDS011;31519;45.408;10.962;2022-12-29T04:41:29;20.63;;;11.52;;
45812;SDS011;31519;45.408;10.962;2022-12-29T04:43:57;24.38;;;12.10;;
45812;SDS011;31519;45.408;10.962;2022-12-29T04:46:34;21.25;;;11.05;;
45812;SDS011;31519;45.408;10.962;2022-12-29T04:49:08;22.75;;;11.27;;
45812;SDS011;31519;45.408;10.962;2022-12-29T04:51:56;23.83;;;11.13;;
45812;SDS011;31519;45.408;10.962;2022-12-29T04:54:24;17.35;;;10.07;;
45812;SDS011;31519;45.408;10.962;2022-12-29T04:57:12;23.45;;;11.30;;
45812;SDS011;31519;45.408;10.962;2022-12-29T04:59:41;26.00;;;11.10;;
45812;SDS011;31519;45.408;10.962;2022-12-29T05:02:10;23.33;;;10.07;;
45812;SDS011;31519;45.408;10.962;2022-12-29T05:04:38;19.23;;;9.35;;
45812;SDS011;31519;45.408;10.962;2022-12-29T05:07:08;84.60;;;33.42;;
45812;SDS011;31519;45.408;10.962;2022-12-29T05:09:37;29.63;;;13.02;;
45812;SDS011;31519;45.408;10.962;2022-12-29T05:12:06;21.52;;;10.45;;
45812;SDS011;31519;45.408;10.962;2022-12-29T05:14:38;24.45;;;11.23;;
45812;SDS011;31519;45.408;10.962;2022-12-29T05:17:09;27.60;;;12.10;;
45812;SDS011;31519;45.408;10.962;2022-12-29T05:19:37;19.00;;;9.40;;
45812;SDS011;31519;45.408;10.962;2022-12-29T05:22:06;19.23;;;10.02;;
45812;SDS011;31519;45.408;10.962;2022-12-29T05:24:34;19.02;;;8.73;;
45812;SDS011;31519;45.408;10.962;2022-12-29T05:27:04;16.88;;;8.80;;
45812;SDS011;31519;45.408;10.962;2022-12-29T05:30:07;42.95;;;19.02;;
45812;SDS011;31519;45.408;10.962;2022-12-29T05:32:36;19.90;;;9.05;;
45812;SDS011;31519;45.408;10.962;2022-12-29T05:35:05;15.52;;;8.05;;
45812;SDS011;31519;45.408;10.962;2022-12-29T05:37:34;17.23;;;7.97;;
45812;SDS011;31519;45.408;10.962;2022-12-29T05:40:03;35.03;;;13.75;;
45812;SDS011;31519;45.408;10.962;2022-12-29T05:42:32;22.67;;;8.20;;
45812;SDS011;31519;45.408;10.962;2022-12-29T05:45:36;15.02;;;7.32;;
45812;SDS011;31519;45.408;10.962;2022-12-29T05:48:23;13.95;;;7.55;;
45812;SDS011;31519;45.408;10.962;2022-12-29T05:51:13;43.90;;;16.58;;
45812;SDS011;31519;45.408;10.962;2022-12-29T05:53:51;46.70;;;16.23;;
45812;SDS011;31519;45.408;10.962;2022-12-29T05:56:19;43.22;;;9.02;;
45812;SDS011;31519;45.408;10.962;2022-12-29T05:58:55;13.45;;;6.65;;
45812;SDS011;31519;45.408;10.962;2022-12-29T06:01:24;17.83;;;7.97;;
45812;SDS011;31519;45.408;10.962;2022-12-29T06:03:54;19.25;;;7.30;;
45812;SDS011;31519;45.408;10.962;2022-12-29T06:06:22;13.02;;;7.30;;
45812;SDS011;31519;45.408;10.962;2022-12-29T06:08:51;15.43;;;7.65;;
45812;SDS011;31519;45.408;10.962;2022-12-29T06:11:20;14.85;;;7.63;;
45812;SDS011;31519;45.408;10.962;2022-12-29T06:13:52;28.95;;;8.07;;
45812;SDS011;31519;45.408;10.962;2022-12-29T06:16:20;17.23;;;7.65;;
45812;SDS011;31519;45.408;10.962;2022-12-29T06:18:51;14.02;;;7.68;;
45812;SDS011;31519;45.408;10.962;2022-12-29T06:21:19;16.05;;;8.50;;
45812;SDS011;31519;45.408;10.962;2022-12-29T06:23:47;21.52;;;7.32;;
45812;SDS011;31519;45.408;10.962;2022-12-29T06:26:16;18.60;;;9.52;;
45812;SDS011;31519;45.408;10.962;2022-12-29T06:28:45;13.55;;;7.47;;
45812;SDS011;31519;45.408;10.962;2022-12-29T06:31:15;11.52;;;6.55;;
45812;SDS011;31519;45.408;10.962;2022-12-29T06:33:43;12.23;;;6.55;;
45812;SDS011;31519;45.408;10.962;2022-12-29T06:36:16;12.05;;;6.72;;
45812;SDS011;31519;45.408;10.962;2022-12-29T06:38:45;17.00;;;7.95;;
45812;SDS011;31519;45.408;10.962;2022-12-29T06:41:15;14.93;;;7.57;;
45812;SDS011;31519;45.408;10.962;2022-12-29T06:44:09;13.32;;;7.20;;
45812;SDS011;31519;45.408;10.962;2022-12-29T06:46:53;15.10;;;7.75;;
45812;SDS011;31519;45.408;10.962;2022-12-29T06:49:21;17.65;;;7.10;;
45812;SDS011;31519;45.408;10.962;2022-12-29T06:51:49;14.77;;;6.60;;
45812;SDS011;31519;45.408;10.962;2022-12-29T06:54:17;14.57;;;7.32;;
45812;SDS011;31519;45.408;10.962;2022-12-29T06:56:45;10.25;;;6.22;;
45812;SDS011;31519;45.408;10.962;2022-12-29T06:59:13;14.07;;;7.45;;
45812;SDS011;31519;45.408;10.962;2022-12-29T07:01:42;12.90;;;6.57;;
45812;SDS011;31519;45.408;10.962;2022-12-29T07:04:10;12.75;;;7.40;;
45812;SDS011;31519;45.408;10.962;2022-12-29T07:06:39;15.50;;;7.20;;
45812;SDS011;31519;45.408;10.962;2022-12-29T07:09:08;13.23;;;5.97;;
45812;SDS011;31519;45.408;10.962;2022-12-29T07:11:39;12.52;;;6.40;;
45812;SDS011;31519;45.408;10.962;2022-12-29T07:14:07;14.32;;;7.97;;
45812;SDS011;31519;45.408;10.962;2022-12-29T07:16:35;15.00;;;6.82;;
45812;SDS011;31519;45.408;10.962;2022-12-29T07:19:03;25.55;;;8.75;;
45812;SDS011;31519;45.408;10.962;2022-12-29T07:21:32;18.17;;;8.95;;
45812;SDS011;31519;45.408;10.962;2022-12-29T07:24:00;16.77;;;8.18;;
45812;SDS011;31519;45.408;10.962;2022-12-29T07:26:28;22.27;;;8.13;;
45812;SDS011;31519;45.408;10.962;2022-12-29T07:29:03;16.65;;;8.27;;
45812;SDS011;31519;45.408;10.962;2022-12-29T07:31:32;18.98;;;8.15;;
45812;SDS011;31519;45.408;10.962;2022-12-29T07:34:00;15.05;;;8.55;;
45812;SDS011;31519;45.408;10.962;2022-12-29T07:36:29;12.15;;;7.13;;
45812;SDS011;31519;45.408;10.962;2022-12-29T07:39:01;13.55;;;7.25;;
45812;SDS011;31519;45.408;10.962;2022-12-29T07:41:30;18.42;;;7.80;;
45812;SDS011;31519;45.408;10.962;2022-12-29T07:44:01;15.05;;;8.20;;
45812;SDS011;31519;45.408;10.962;2022-12-29T07:46:50;15.75;;;8.38;;
45812;SDS011;31519;45.408;10.962;2022-12-29T07:49:23;19.58;;;8.45;;
45812;SDS011;31519;45.408;10.962;2022-12-29T07:51:52;23.83;;;9.88;;
45812;SDS011;31519;45.408;10.962;2022-12-29T07:54:20;26.88;;;10.95;;
45812;SDS011;31519;45.408;10.962;2022-12-29T07:56:50;20.33;;;9.75;;
45812;SDS011;31519;45.408;10.962;2022-12-29T07:59:19;20.58;;;8.55;;
45812;SDS011;31519;45.408;10.962;2022-12-29T08:01:47;17.88;;;8.52;;
45812;SDS011;31519;45.408;10.962;2022-12-29T08:04:15;19.08;;;8.18;;
45812;SDS011;31519;45.408;10.962;2022-12-29T08:06:43;20.50;;;9.40;;
45812;SDS011;31519;45.408;10.962;2022-12-29T08:09:13;17.35;;;8.65;;
45812;SDS011;31519;45.408;10.962;2022-12-29T08:11:49;18.65;;;8.98;;
45812;SDS011;31519;45.408;10.962;2022-12-29T08:14:17;22.45;;;8.77;;
45812;SDS011;31519;45.408;10.962;2022-12-29T08:16:47;16.05;;;8.50;;
45812;SDS011;31519;45.408;10.962;2022-12-29T08:19:15;16.50;;;7.70;;
45812;SDS011;31519;45.408;10.962;2022-12-29T08:21:44;13.05;;;8.75;;
45812;SDS011;31519;45.408;10.962;2022-12-29T08:24:12;15.18;;;8.25;;
45812;SDS011;31519;45.408;10.962;2022-12-29T08:26:40;15.20;;;8.40;;
45812;SDS011;31519;45.408;10.962;2022-12-29T08:29:08;24.10;;;8.65;;
45812;SDS011;31519;45.408;10.962;2022-12-29T08:31:37;20.15;;;9.75;;
45812;SDS011;31519;45.408;10.962;2022-12-29T08:34:05;20.60;;;8.65;;
45812;SDS011;31519;45.408;10.962;2022-12-29T08:36:33;18.23;;;8.93;;
45812;SDS011;31519;45.408;10.962;2022-12-29T08:39:01;17.23;;;8.82;;
45812;SDS011;31519;45.408;10.962;2022-12-29T08:41:29;20.45;;;9.05;;
45812;SDS011;31519;45.408;10.962;2022-12-29T08:43:58;26.45;;;8.35;;
45812;SDS011;31519;45.408;10.962;2022-12-29T08:46:26;18.70;;;8.88;;
45812;SDS011;31519;45.408;10.962;2022-12-29T08:48:54;20.63;;;9.73;;
45812;SDS011;31519;45.408;10.962;2022-12-29T08:51:22;21.30;;;9.20;;
45812;SDS011;31519;45.408;10.962;2022-12-29T08:53:51;21.50;;;10.57;;
45812;SDS011;31519;45.408;10.962;2022-12-29T08:56:20;21.13;;;9.45;;
45812;SDS011;31519;45.408;10.962;2022-12-29T08:58:53;18.02;;;8.30;;
45812;SDS011;31519;45.408;10.962;2022-12-29T09:01:24;17.50;;;8.48;;
45812;SDS011;31519;45.408;10.962;2022-12-29T09:03:53;18.08;;;9.02;;
45812;SDS011;31519;45.408;10.962;2022-12-29T09:06:42;17.00;;;8.52;;
45812;SDS011;31519;45.408;10.962;2022-12-29T09:09:11;29.80;;;9.77;;
45812;SDS011;31519;45.408;10.962;2022-12-29T09:11:40;18.35;;;8.68;;
45812;SDS011;31519;45.408;10.962;2022-12-29T09:14:09;20.35;;;8.95;;
45812;SDS011;31519;45.408;10.962;2022-12-29T09:16:37;27.10;;;9.93;;
45812;SDS011;31519;45.408;10.962;2022-12-29T09:19:06;20.65;;;10.02;;
45812;SDS011;31519;45.408;10.962;2022-12-29T09:21:34;16.95;;;9.07;;
45812;SDS011;31519;45.408;10.962;2022-12-29T09:24:02;26.85;;;10.60;;
45812;SDS011;31519;45.408;10.962;2022-12-29T09:26:30;16.90;;;9.07;;
45812;SDS011;31519;45.408;10.962;2022-12-29T09:28:58;19.23;;;10.55;;
45812;SDS011;31519;45.408;10.962;2022-12-29T09:31:26;25.35;;;9.43;;
45812;SDS011;31519;45.408;10.962;2022-12-29T09:33:54;28.45;;;10.55;;
45812;SDS011;31519;45.408;10.962;2022-12-29T09:36:23;24.10;;;9.55;;
45812;SDS011;31519;45.408;10.962;2022-12-29T09:38:52;21.75;;;10.40;;
45812;SDS011;31519;45.408;10.962;2022-12-29T09:41:26;21.38;;;10.90;;
45812;SDS011;31519;45.408;10.962;2022-12-29T09:44:31;25.75;;;12.10;;
45812;SDS011;31519;45.408;10.962;2022-12-29T09:47:11;28.05;;;13.35;;
45812;SDS011;31519;45.408;10.962;2022-12-29T09:53:11;22.90;;;11.00;;
45812;SDS011;31519;45.408;10.962;2022-12-29T09:55:45;19.77;;;10.85;;
45812;SDS011;31519;45.408;10.962;2022-12-29T10:01:04;24.63;;;11.73;;
45812;SDS011;31519;45.408;10.962;2022-12-29T10:03:48;26.48;;;11.63;;
45812;SDS011;31519;45.408;10.962;2022-12-29T10:09:39;21.27;;;12.18;;
45812;SDS011;31519;45.408;10.962;2022-12-29T10:18:22;23.95;;;12.63;;
45812;SDS011;31519;45.408;10.962;2022-12-29T10:24:12;24.15;;;12.88;;
45812;SDS011;31519;45.408;10.962;2022-12-29T10:26:41;24.08;;;12.82;;
45812;SDS011;31519;45.408;10.962;2022-12-29T10:32:02;26.45;;;15.18;;
45812;SDS011;31519;45.408;10.962;2022-12-29T10:34:37;23.00;;;13.68;;
45812;SDS011;31519;45.408;10.962;2022-12-29T10:38:13;31.45;;;14.82;;
45812;SDS011;31519;45.408;10.962;2022-12-29T10:42:56;32.70;;;17.13;;
45812;SDS011;31519;45.408;10.962;2022-12-29T10:45:27;29.23;;;16.48;;
45812;SDS011;31519;45.408;10.962;2022-12-29T10:50:37;32.20;;;16.45;;
45812;SDS011;31519;45.408;10.962;2022-12-29T10:53:15;28.58;;;16.60;;
45812;SDS011;31519;45.408;10.962;2022-12-29T10:55:49;41.50;;;18.90;;
45812;SDS011;31519;45.408;10.962;2022-12-29T10:58:19;40.17;;;19.70;;
45812;SDS011;31519;45.408;10.962;2022-12-29T11:00:49;32.05;;;16.98;;
45812;SDS011;31519;45.408;10.962;2022-12-29T11:09:02;32.60;;;18.50;;
45812;SDS011;31519;45.408;10.962;2022-12-29T11:11:41;46.17;;;21.67;;
45812;SDS011;31519;45.408;10.962;2022-12-29T11:14:17;40.58;;;20.33;;
45812;SDS011;31519;45.408;10.962;2022-12-29T11:16:57;37.78;;;21.58;;
45812;SDS011;31519;45.408;10.962;2022-12-29T11:19:28;40.25;;;22.92;;
45812;SDS011;31519;45.408;10.962;2022-12-29T11:22:39;41.03;;;21.98;;
45812;SDS011;31519;45.408;10.962;2022-12-29T11:25:06;37.53;;;20.98;;
45812;SDS011;31519;45.408;10.962;2022-12-29T11:27:40;51.90;;;22.65;;
45812;SDS011;31519;45.408;10.962;2022-12-29T11:30:25;44.75;;;23.17;;
45812;SDS011;31519;45.408;10.962;2022-12-29T11:32:56;42.78;;;23.40;;
45812;SDS011;31519;45.408;10.962;2022-12-29T11:38:12;46.38;;;21.85;;
45812;SDS011;31519;45.408;10.962;2022-12-29T11:40:51;49.88;;;26.05;;
45812;SDS011;31519;45.408;10.962;2022-12-29T11:43:30;42.50;;;23.38;;
45812;SDS011;31519;45.408;10.962;2022-12-29T11:46:02;45.90;;;23.52;;
45812;SDS011;31519;45.408;10.962;2022-12-29T11:48:39;45.08;;;24.65;;
45812;SDS011;31519;45.408;10.962;2022-12-29T11:51:09;43.13;;;23.80;;
45812;SDS011;31519;45.408;10.962;2022-12-29T11:53:45;36.05;;;21.15;;
45812;SDS011;31519;45.408;10.962;2022-12-29T11:56:19;41.67;;;21.00;;
45812;SDS011;31519;45.408;10.962;2022-12-29T11:58:50;39.75;;;20.33;;
45812;SDS011;31519;45.408;10.962;2022-12-29T12:01:20;53.05;;;22.50;;
45812;SDS011;31519;45.408;10.962;2022-12-29T12:04:03;48.72;;;25.00;;
45812;SDS011;31519;45.408;10.962;2022-12-29T12:06:48;44.30;;;23.42;;
45812;SDS011;31519;45.408;10.962;2022-12-29T12:10:10;52.55;;;23.60;;
45812;SDS011;31519;45.408;10.962;2022-12-29T12:12:50;46.63;;;23.60;;
45812;SDS011;31519;45.408;10.962;2022-12-29T12:18:21;44.50;;;21.67;;
45812;SDS011;31519;45.408;10.962;2022-12-29T12:21:09;39.70;;;20.05;;
45812;SDS011;31519;45.408;10.962;2022-12-29T12:23:56;39.60;;;20.40;;
45812;SDS011;31519;45.408;10.962;2022-12-29T12:29:43;35.60;;;18.90;;
45812;SDS011;31519;45.408;10.962;2022-12-29T12:32:28;33.47;;;18.90;;
45812;SDS011;31519;45.408;10.962;2022-12-29T12:35:18;31.03;;;18.07;;
45812;SDS011;31519;45.408;10.962;2022-12-29T12:57:49;34.53;;;18.33;;
45812;SDS011;31519;45.408;10.962;2022-12-29T13:00:21;42.78;;;20.23;;
45812;SDS011;31519;45.408;10.962;2022-12-29T13:10:54;37.40;;;19.48;;
45812;SDS011;31519;45.408;10.962;2022-12-29T13:13:38;35.17;;;18.92;;
45812;SDS011;31519;45.408;10.962;2022-12-29T13:16:19;34.85;;;20.02;;
45812;SDS011;31519;45.408;10.962;2022-12-29T13:18:59;47.50;;;22.08;;
45812;SDS011;31519;45.408;10.962;2022-12-29T13:31:19;44.53;;;19.90;;
45812;SDS011;31519;45.408;10.962;2022-12-29T13:33:41;30.48;;;18.33;;
45812;SDS011;31519;45.408;10.962;2022-12-29T13:42:03;40.22;;;19.67;;
45812;SDS011;31519;45.408;10.962;2022-12-29T13:44:37;37.05;;;19.60;;
45812;SDS011;31519;45.408;10.962;2022-12-29T13:49:58;35.47;;;19.05;;
45812;SDS011;31519;45.408;10.962;2022-12-29T13:55:20;40.88;;;21.17;;
45812;SDS011;31519;45.408;10.962;2022-12-29T14:00:43;35.50;;;20.05;;
45812;SDS011;31519;45.408;10.962;2022-12-29T14:06:12;40.87;;;22.07;;
45812;SDS011;31519;45.408;10.962;2022-12-29T14:08:54;35.08;;;18.48;;
45812;SDS011;31519;45.408;10.962;2022-12-29T14:11:34;44.80;;;20.60;;
45812;SDS011;31519;45.408;10.962;2022-12-29T14:14:38;40.75;;;20.35;;
45812;SDS011;31519;45.408;10.962;2022-12-29T14:17:09;38.15;;;21.65;;
45812;SDS011;31519;45.408;10.962;2022-12-29T14:19:42;34.97;;;19.20;;
45812;SDS011;31519;45.408;10.962;2022-12-29T14:22:11;39.85;;;21.05;;
45812;SDS011;31519;45.408;10.962;2022-12-29T14:24:44;38.58;;;21.77;;
45812;SDS011;31519;45.408;10.962;2022-12-29T14:29:45;44.55;;;23.80;;
45812;SDS011;31519;45.408;10.962;2022-12-29T14:34:56;43.03;;;22.77;;
45812;SDS011;31519;45.408;10.962;2022-12-29T14:40:22;42.45;;;23.67;;
45812;SDS011;31519;45.408;10.962;2022-12-29T14:42:55;49.80;;;23.40;;
45812;SDS011;31519;45.408;10.962;2022-12-29T14:45:29;44.55;;;24.50;;
45812;SDS011;31519;45.408;10.962;2022-12-29T14:48:00;40.80;;;22.60;;
45812;SDS011;31519;45.408;10.962;2022-12-29T14:50:50;39.40;;;23.17;;
45812;SDS011;31519;45.408;10.962;2022-12-29T14:58:56;43.22;;;24.58;;
45812;SDS011;31519;45.408;10.962;2022-12-29T15:03:58;40.40;;;22.85;;
45812;SDS011;31519;45.408;10.962;2022-12-29T15:06:32;42.40;;;22.88;;
45812;SDS011;31519;45.408;10.962;2022-12-29T15:09:06;45.28;;;24.90;;
45812;SDS011;31519;45.408;10.962;2022-12-29T15:14:55;49.05;;;24.90;;
45812;SDS011;31519;45.408;10.962;2022-12-29T15:19:54;56.55;;;25.63;;
45812;SDS011;31519;45.408;10.962;2022-12-29T15:22:25;50.53;;;25.08;;
45812;SDS011;31519;45.408;10.962;2022-12-29T15:24:55;54.75;;;26.70;;
45812;SDS011;31519;45.408;10.962;2022-12-29T15:27:25;54.00;;;25.10;;
45812;SDS011;31519;45.408;10.962;2022-12-29T15:29:58;53.70;;;26.08;;
45812;SDS011;31519;45.408;10.962;2022-12-29T15:32:42;52.55;;;26.00;;
45812;SDS011;31519;45.408;10.962;2022-12-29T15:35:45;52.08;;;28.10;;
45812;SDS011;31519;45.408;10.962;2022-12-29T15:38:16;46.95;;;25.23;;
45812;SDS011;31519;45.408;10.962;2022-12-29T15:41:00;48.67;;;26.30;;
45812;SDS011;31519;45.408;10.962;2022-12-29T15:46:31;49.20;;;26.02;;
45812;SDS011;31519;45.408;10.962;2022-12-29T15:49:04;51.28;;;25.63;;
45812;SDS011;31519;45.408;10.962;2022-12-29T15:51:36;59.20;;;26.30;;
45812;SDS011;31519;45.408;10.962;2022-12-29T15:54:17;51.80;;;25.35;;
45812;SDS011;31519;45.408;10.962;2022-12-29T15:56:48;54.42;;;26.27;;
45812;SDS011;31519;45.408;10.962;2022-12-29T15:59:22;51.00;;;25.52;;
45812;SDS011;31519;45.408;10.962;2022-12-29T16:01:56;49.55;;;24.88;;
45812;SDS011;31519;45.408;10.962;2022-12-29T16:04:31;52.00;;;26.35;;
45812;SDS011;31519;45.408;10.962;2022-12-29T16:07:24;48.03;;;26.27;;
45812;SDS011;31519;45.408;10.962;2022-12-29T16:10:21;46.42;;;25.13;;
45812;SDS011;31519;45.408;10.962;2022-12-29T16:13:25;58.08;;;27.60;;
45812;SDS011;31519;45.408;10.962;2022-12-29T16:16:09;46.42;;;25.85;;
45812;SDS011;31519;45.408;10.962;2022-12-29T16:18:46;50.75;;;26.23;;
45812;SDS011;31519;45.408;10.962;2022-12-29T16:23:57;49.35;;;26.65;;
45812;SDS011;31519;45.408;10.962;2022-12-29T16:26:48;47.95;;;26.55;;
45812;SDS011;31519;45.408;10.962;2022-12-29T16:29:19;52.28;;;27.00;;
45812;SDS011;31519;45.408;10.962;2022-12-29T16:31:54;45.33;;;25.65;;
45812;SDS011;31519;45.408;10.962;2022-12-29T16:37:27;50.90;;;27.25;;
45812;SDS011;31519;45.408;10.962;2022-12-29T16:43:03;50.28;;;26.92;;
45812;SDS011;31519;45.408;10.962;2022-12-29T16:48:57;51.28;;;28.30;;
45812;SDS011;31519;45.408;10.962;2022-12-29T16:51:38;56.53;;;27.08;;
45812;SDS011;31519;45.408;10.962;2022-12-29T16:54:20;50.42;;;27.52;;
45812;SDS011;31519;45.408;10.962;2022-12-29T16:56:52;57.50;;;29.73;;
45812;SDS011;31519;45.408;10.962;2022-12-29T16:59:30;57.13;;;28.85;;
45812;SDS011;31519;45.408;10.962;2022-12-29T17:02:13;51.47;;;28.83;;
45812;SDS011;31519;45.408;10.962;2022-12-29T17:04:45;59.70;;;29.70;;
45812;SDS011;31519;45.408;10.962;2022-12-29T17:07:17;56.42;;;30.80;;
45812;SDS011;31519;45.408;10.962;2022-12-29T17:09:48;48.38;;;26.38;;
45812;SDS011;31519;45.408;10.962;2022-12-29T17:12:17;62.50;;;30.63;;
45812;SDS011;31519;45.408;10.962;2022-12-29T17:14:51;64.13;;;31.35;;
45812;SDS011;31519;45.408;10.962;2022-12-29T17:17:32;86.32;;;39.45;;
45812;SDS011;31519;45.408;10.962;2022-12-29T17:20:08;67.22;;;33.03;;
45812;SDS011;31519;45.408;10.962;2022-12-29T17:22:43;66.78;;;33.42;;
45812;SDS011;31519;45.408;10.962;2022-12-29T17:25:13;69.18;;;35.10;;
45812;SDS011;31519;45.408;10.962;2022-12-29T17:27:47;60.53;;;31.25;;
45812;SDS011;31519;45.408;10.962;2022-12-29T17:30:28;58.00;;;29.65;;
45812;SDS011;31519;45.408;10.962;2022-12-29T17:33:11;59.67;;;31.67;;
45812;SDS011;31519;45.408;10.962;2022-12-29T17:35:42;53.92;;;26.65;;
45812;SDS011;31519;45.408;10.962;2022-12-29T17:38:17;54.45;;;28.00;;
45812;SDS011;31519;45.408;10.962;2022-12-29T17:40:45;53.78;;;26.52;;
45812;SDS011;31519;45.408;10.962;2022-12-29T17:43:14;51.72;;;27.25;;
45812;SDS011;31519;45.408;10.962;2022-12-29T17:45:43;57.30;;;27.73;;
45812;SDS011;31519;45.408;10.962;2022-12-29T17:48:16;53.83;;;26.77;;